Terminal Aerodrome Forecast
Issued by NWS

Home | Current Version | Previous Version | Text Only | Print | Product List | Glossary On
Versions: 1 2 3 4 5 6 7 8 9 10 11 12 13 14 15 16 17
000
FTUS41 KBTV 281136
TAFSLK
TAF
KSLK 281136Z 2812/2912 VRB03KT 1/4SM FG VV002
      TEMPO 2812/2814 1SM BR SCT002
     FM281400 25006KT P6SM FEW035
     FM290000 VRB03KT P6SM SKC
     FM290600 00000KT 1/4SM FG VV001=

USA.gov is the U.S. government's official web portal to all federal, state and local government web resources and services.